Time;durP1;ratioP1;P1;durP2;ratioP2;P2;SDS_P1;SDS_P2;PMS_P1;PMS_P2;Temp;Humidity;BMP_temperature;BMP_pressure;BME280_temperature;BME280_humidity;BME280_pressure;Samples;Min_cycle;Max_cycle;Signal;HPM_P1;HPM_P2
2024/05/06 00:01:20;;;;;;;11.18;6.25;;;13.70;6.60;;;;;;5447943;26;20718;-75
2024/05/06 00:03:45;;;;;;;6.97;5.75;;;13.70;6.70;;;;;;5415790;26;20323;-76
2024/05/06 00:06:11;;;;;;;7.32;5.45;;;13.60;6.40;;;;;;5447902;26;20252;-74
2024/05/06 00:08:37;;;;;;;7.38;5.57;;;13.60;6.80;;;;;;5447948;26;20335;-76
2024/05/06 00:11:03;;;;;;;9.63;6.22;;;13.50;7.40;;;;;;5448358;26;20226;-74
2024/05/06 00:13:28;;;;;;;7.15;5.68;;;13.50;7.60;;;;;;5448142;26;20233;-76
2024/05/06 00:15:53;;;;;;;6.75;5.85;;;13.60;7.60;;;;;;5447880;26;20226;-75
2024/05/06 00:18:19;;;;;;;7.95;5.95;;;13.60;7.50;;;;;;5447862;26;20217;-74
2024/05/06 00:20:44;;;;;;;9.80;6.30;;;13.60;7.00;;;;;;5447611;26;20713;-74
2024/05/06 00:23:10;;;;;;;7.30;6.07;;;13.60;8.40;;;;;;5447878;26;20334;-73
2024/05/06 00:25:35;;;;;;;7.68;6.05;;;13.50;7.80;;;;;;5447868;26;20229;-76
2024/05/06 00:28:01;;;;;;;7.43;5.85;;;13.50;7.10;;;;;;5447296;26;20222;-74
2024/05/06 00:30:27;;;;;;;9.05;6.00;;;13.50;8.10;;;;;;5446986;26;20271;-76
2024/05/06 00:32:52;;;;;;;7.18;5.60;;;13.50;9.00;;;;;;5447207;26;20230;-74
2024/05/06 00:35:18;;;;;;;6.53;5.72;;;13.40;8.90;;;;;;5447270;26;20221;-74
2024/05/06 00:37:43;;;;;;;6.28;5.68;;;13.40;9.00;;;;;;5447787;26;20724;-73
2024/05/06 00:40:09;;;;;;;7.30;6.10;;;13.40;8.10;;;;;;5447645;26;20260;-73
2024/05/06 00:42:34;;;;;;;8.02;6.18;;;13.40;8.40;;;;;;5447302;26;20284;-75
2024/05/06 00:45:00;;;;;;;8.15;5.80;;;13.40;8.10;;;;;;5447520;26;20268;-74
2024/05/06 00:47:26;;;;;;;10.18;6.63;;;13.40;8.10;;;;;;5446862;26;20355;-76
2024/05/06 00:49:53;;;;;;;6.65;6.05;;;13.40;8.40;;;;;;5447251;26;20939;-74
2024/05/06 00:52:19;;;;;;;6.93;5.90;;;13.30;8.40;;;;;;5447435;26;20268;-76
2024/05/06 00:54:45;;;;;;;7.90;6.38;;;13.30;8.90;;;;;;5447327;26;20729;-76
2024/05/06 00:57:11;;;;;;;9.32;6.03;;;13.30;8.40;;;;;;5446979;26;20277;-75
2024/05/06 00:59:37;;;;;;;8.05;6.45;;;13.30;8.40;;;;;;5447074;26;20720;-74
2024/05/06 01:02:03;;;;;;;10.25;6.43;;;13.20;8.70;;;;;;5446176;26;20230;-75
2024/05/06 01:04:29;;;;;;;8.32;6.00;;;13.20;8.50;;;;;;5447060;26;20555;-74
2024/05/06 01:06:54;;;;;;;8.02;6.25;;;13.20;9.50;;;;;;5447182;26;20752;-75
2024/05/06 01:09:20;;;;;;;8.38;6.60;;;13.10;9.20;;;;;;5446273;26;20260;-73
2024/05/06 01:11:45;;;;;;;11.23;6.65;;;13.00;9.40;;;;;;5445705;26;20280;-74
2024/05/06 01:14:12;;;;;;;7.50;6.25;;;13.00;10.00;;;;;;5446615;26;20222;-75
2024/05/06 01:16:37;;;;;;;7.78;6.28;;;13.00;9.80;;;;;;5446535;26;20782;-74
2024/05/06 01:19:03;;;;;;;7.88;6.32;;;13.10;10.00;;;;;;5446735;26;20277;-74
2024/05/06 01:21:38;;;;;;;8.82;6.35;;;12.90;10.00;;;;;;5446496;26;20214;-75
2024/05/06 01:24:04;;;;;;;7.57;5.85;;;13.00;9.50;;;;;;5446513;26;20321;-74
2024/05/06 01:26:29;;;;;;;10.57;6.50;;;12.90;9.70;;;;;;5446166;26;20649;-75
2024/05/06 01:28:55;;;;;;;11.55;6.30;;;12.80;9.60;;;;;;5448974;26;20225;-75
2024/05/06 01:31:20;;;;;;;9.80;6.85;;;12.80;10.30;;;;;;5450214;26;20278;-74
2024/05/06 01:33:46;;;;;;;7.38;5.97;;;12.80;10.20;;;;;;5450435;26;20237;-75
2024/05/06 01:36:13;;;;;;;7.90;5.97;;;12.80;10.40;;;;;;5450046;26;20690;-75
2024/05/06 01:38:38;;;;;;;9.30;6.53;;;12.80;10.60;;;;;;5450315;26;20222;-73
2024/05/06 01:41:04;;;;;;;10.27;6.70;;;12.50;10.70;;;;;;5449902;26;20222;-74
2024/05/06 01:43:29;;;;;;;10.88;6.22;;;12.70;10.90;;;;;;5450233;26;20268;-73
2024/05/06 01:45:55;;;;;;;8.90;6.18;;;12.70;9.10;;;;;;5418359;26;20274;-73
2024/05/06 01:48:20;;;;;;;11.20;6.75;;;12.60;8.60;;;;;;5450249;26;20315;-73
2024/05/06 01:50:46;;;;;;;8.45;6.20;;;12.70;9.10;;;;;;5449740;26;20552;-74
2024/05/06 01:53:11;;;;;;;7.45;6.30;;;12.70;9.20;;;;;;5450069;26;20238;-75
2024/05/06 01:55:37;;;;;;;10.15;6.38;;;12.60;10.00;;;;;;5449297;26;20218;-73
2024/05/06 01:58:02;;;;;;;7.57;6.05;;;12.60;10.60;;;;;;5450086;26;20237;-73
2024/05/06 02:00:28;;;;;;;6.47;5.65;;;12.60;10.40;;;;;;5449352;26;20221;-74
2024/05/06 02:02:53;;;;;;;10.23;6.55;;;12.60;10.50;;;;;;5449972;26;20281;-74
2024/05/06 02:05:19;;;;;;;8.68;6.93;;;12.50;10.60;;;;;;5449445;26;20285;-76
2024/05/06 02:07:44;;;;;;;10.98;6.22;;;12.50;11.50;;;;;;5449418;26;20383;-74
2024/05/06 02:10:10;;;;;;;8.55;5.72;;;12.40;11.70;;;;;;5449763;26;20218;-75
2024/05/06 02:12:35;;;;;;;8.98;6.43;;;12.40;11.80;;;;;;5449889;26;20238;-73
2024/05/06 02:15:00;;;;;;;11.32;6.70;;;12.40;12.20;;;;;;5449773;26;20268;-74
2024/05/06 02:17:26;;;;;;;9.10;6.05;;;12.40;11.20;;;;;;5449445;26;20640;-74
2024/05/06 02:19:52;;;;;;;8.27;6.35;;;12.30;11.40;;;;;;5449389;26;20261;-74
2024/05/06 02:22:17;;;;;;;11.02;6.95;;;12.30;11.30;;;;;;5449129;26;20710;-75
2024/05/06 02:24:43;;;;;;;9.52;7.13;;;12.40;11.30;;;;;;5449513;26;20702;-73
2024/05/06 02:27:08;;;;;;;7.45;6.25;;;12.30;11.70;;;;;;5449712;26;20226;-74
2024/05/06 02:29:34;;;;;;;7.30;6.28;;;12.50;12.00;;;;;;5449178;26;20222;-74
2024/05/06 02:31:59;;;;;;;7.53;6.07;;;12.20;11.50;;;;;;5417875;26;20319;-76
2024/05/06 02:34:25;;;;;;;8.25;6.30;;;12.20;11.80;;;;;;5449265;26;21012;-75
2024/05/06 02:36:50;;;;;;;8.60;6.75;;;12.20;11.90;;;;;;5449044;26;20225;-76
2024/05/06 02:39:16;;;;;;;9.30;7.05;;;12.20;11.90;;;;;;5445195;26;20230;-74
2024/05/06 02:41:41;;;;;;;8.85;6.53;;;12.20;12.60;;;;;;5447146;26;20217;-75
2024/05/06 02:44:07;;;;;;;9.55;7.03;;;12.20;12.50;;;;;;5449139;26;20311;-74
2024/05/06 02:46:32;;;;;;;10.38;7.10;;;12.20;12.40;;;;;;5449100;26;20288;-76
2024/05/06 02:48:59;;;;;;;9.30;7.13;;;12.10;12.10;;;;;;5444030;26;20347;-74
2024/05/06 02:51:25;;;;;;;8.20;6.82;;;12.00;11.90;;;;;;5415431;26;20233;-73
2024/05/06 02:53:50;;;;;;;8.85;6.80;;;12.00;11.50;;;;;;5430122;26;20283;-74
2024/05/06 02:56:16;;;;;;;10.32;7.05;;;12.00;11.80;;;;;;5429518;26;20229;-73
2024/05/06 02:58:41;;;;;;;8.15;6.65;;;11.90;11.40;;;;;;5432441;26;20237;-73
2024/05/06 03:01:07;;;;;;;7.97;6.38;;;11.90;12.00;;;;;;5428881;26;20628;-76
2024/05/06 03:03:32;;;;;;;8.43;7.07;;;11.90;11.90;;;;;;5430323;26;20293;-76
2024/05/06 03:05:58;;;;;;;9.05;7.13;;;11.90;12.20;;;;;;5431387;26;20274;-74
2024/05/06 03:08:23;;;;;;;8.45;6.53;;;11.90;12.50;;;;;;5428426;26;20277;-75
2024/05/06 03:10:48;;;;;;;11.00;6.95;;;11.90;12.50;;;;;;5431512;26;20229;-73
2024/05/06 03:13:14;;;;;;;8.27;6.32;;;11.90;12.40;;;;;;5430270;26;20231;-76
2024/05/06 03:15:40;;;;;;;8.43;6.45;;;11.80;12.70;;;;;;5424750;26;20589;-74
2024/05/06 03:18:05;;;;;;;8.05;6.60;;;11.90;13.00;;;;;;5412961;26;20269;-73
2024/05/06 03:20:31;;;;;;;8.15;6.90;;;11.80;12.60;;;;;;5412987;26;20265;-74
2024/05/06 03:22:56;;;;;;;11.52;7.45;;;11.80;13.20;;;;;;5412699;26;20246;-73
2024/05/06 03:25:22;;;;;;;9.98;7.55;;;11.80;13.00;;;;;;5412410;26;20308;-73
2024/05/06 03:27:48;;;;;;;9.90;6.97;;;11.80;13.50;;;;;;5412875;26;20265;-75
2024/05/06 03:30:14;;;;;;;9.60;6.88;;;11.80;13.60;;;;;;5412715;26;20741;-74
2024/05/06 03:32:39;;;;;;;8.25;6.57;;;11.70;13.60;;;;;;5381588;26;20234;-76
2024/05/06 03:35:05;;;;;;;11.15;7.13;;;11.80;14.00;;;;;;5413026;26;20223;-74
2024/05/06 03:37:30;;;;;;;9.57;6.95;;;11.70;13.90;;;;;;5412479;26;20223;-74
2024/05/06 03:39:56;;;;;;;9.68;6.97;;;11.80;13.70;;;;;;5412586;26;20219;-74
2024/05/06 03:42:21;;;;;;;8.75;6.82;;;11.80;13.30;;;;;;5410787;26;20250;-73
2024/05/06 03:44:47;;;;;;;11.90;7.25;;;11.80;13.20;;;;;;5412691;26;20227;-72
2024/05/06 03:47:13;;;;;;;8.88;7.90;;;11.80;13.10;;;;;;5412110;26;20568;-74
2024/05/06 03:49:38;;;;;;;9.38;7.25;;;11.70;12.80;;;;;;5412616;26;20226;-75
2024/05/06 03:52:04;;;;;;;10.63;7.22;;;11.80;12.90;;;;;;5412011;26;20231;-75
2024/05/06 03:54:29;;;;;;;12.13;8.00;;;11.70;12.90;;;;;;5412584;26;20223;-74
2024/05/06 03:56:54;;;;;;;8.88;7.35;;;11.70;13.00;;;;;;5412021;26;20223;-75
2024/05/06 03:59:20;;;;;;;10.88;7.40;;;11.60;13.00;;;;;;5412089;26;20283;-75
2024/05/06 04:01:45;;;;;;;12.35;8.50;;;11.60;12.90;;;;;;5412444;26;20235;-73
2024/05/06 04:04:11;;;;;;;9.95;7.95;;;11.50;13.30;;;;;;5412611;26;20227;-74
2024/05/06 04:06:36;;;;;;;11.13;7.22;;;11.50;13.00;;;;;;5411826;26;20238;-74
2024/05/06 04:09:02;;;;;;;9.77;7.90;;;11.40;12.90;;;;;;5411972;26;20624;-75
2024/05/06 04:11:28;;;;;;;10.07;8.05;;;11.40;12.90;;;;;;5412146;26;20282;-74
2024/05/06 04:13:53;;;;;;;11.27;8.30;;;11.30;13.50;;;;;;5411862;26;20261;-75
2024/05/06 04:16:19;;;;;;;11.77;8.45;;;11.30;14.10;;;;;;5411901;26;20312;-74
2024/05/06 04:18:44;;;;;;;11.88;8.77;;;11.30;14.20;;;;;;5412176;26;20627;-75
2024/05/06 04:21:10;;;;;;;11.73;8.60;;;11.30;14.10;;;;;;5411913;26;20219;-74
2024/05/06 04:29:12;;;;;;;12.07;8.70;;;11.30;15.30;;;;;;5381100;26;20330;-75
2024/05/06 04:31:37;;;;;;;11.45;7.68;;;11.50;15.90;;;;;;5430181;26;20622;-74
2024/05/06 04:34:03;;;;;;;13.23;8.73;;;11.40;15.50;;;;;;5431598;26;20229;-74
2024/05/06 04:36:28;;;;;;;13.45;9.00;;;11.40;15.40;;;;;;5427388;26;20777;-74
2024/05/06 04:38:54;;;;;;;13.48;8.80;;;11.40;15.50;;;;;;5428865;26;20326;-73
2024/05/06 04:41:23;;;;;;;11.95;8.35;;;11.40;15.80;;;;;;5398711;26;20323;-74
2024/05/06 04:43:48;;;;;;;15.23;9.00;;;11.50;15.10;;;;;;5425791;26;20280;-73
2024/05/06 04:46:14;;;;;;;11.32;8.48;;;11.50;14.90;;;;;;5428991;26;20238;-73
2024/05/06 04:48:39;;;;;;;11.93;8.88;;;11.50;15.30;;;;;;5431877;26;20316;-76
2024/05/06 04:51:05;;;;;;;11.77;7.88;;;11.50;15.80;;;;;;5426537;26;20642;-73
2024/05/06 04:53:30;;;;;;;12.85;8.68;;;11.50;16.00;;;;;;5428934;26;20258;-76
2024/05/06 04:55:56;;;;;;;12.93;8.77;;;11.40;15.70;;;;;;5427784;26;20348;-75
2024/05/06 04:58:22;;;;;;;12.75;9.18;;;11.40;15.60;;;;;;5431368;26;20287;-75
2024/05/06 05:00:47;;;;;;;12.93;8.63;;;11.50;16.20;;;;;;5446500;26;20225;-73
2024/05/06 05:03:13;;;;;;;15.65;8.82;;;11.50;16.30;;;;;;5448104;26;20238;-73
2024/05/06 05:05:39;;;;;;;11.65;9.68;;;11.60;16.70;;;;;;5450625;26;20256;-74
2024/05/06 05:08:05;;;;;;;11.65;8.23;;;11.60;16.90;;;;;;5451132;26;20306;-74
2024/05/06 05:10:30;;;;;;;14.40;9.50;;;11.60;17.00;;;;;;5450421;26;20225;-75
2024/05/06 05:12:56;;;;;;;15.13;9.77;;;11.70;16.50;;;;;;5450570;26;20241;-74
2024/05/06 05:15:21;;;;;;;11.88;8.70;;;11.70;17.20;;;;;;5450357;26;20818;-76
2024/05/06 05:17:47;;;;;;;14.80;9.68;;;11.70;17.00;;;;;;5450835;26;20325;-72
2024/05/06 05:20:12;;;;;;;11.02;7.60;;;11.80;17.00;;;;;;5450355;26;20230;-74
2024/05/06 05:22:38;;;;;;;12.20;8.80;;;11.70;17.50;;;;;;5450204;26;20281;-75
2024/05/06 05:25:03;;;;;;;15.20;9.35;;;11.70;17.00;;;;;;5450283;26;20222;-75
2024/05/06 05:27:29;;;;;;;13.38;8.85;;;12.00;17.60;;;;;;5450305;26;20226;-74
2024/05/06 05:29:54;;;;;;;11.30;7.97;;;11.80;17.60;;;;;;5450061;26;20333;-72
2024/05/06 05:32:20;;;;;;;14.48;9.77;;;11.90;16.90;;;;;;5450241;26;20752;-73
2024/05/06 05:34:45;;;;;;;14.02;9.35;;;11.90;17.20;;;;;;5450397;26;20343;-74
2024/05/06 05:37:11;;;;;;;14.07;8.25;;;12.00;17.50;;;;;;5450052;26;20268;-73
2024/05/06 05:39:36;;;;;;;11.55;8.52;;;12.10;17.20;;;;;;5449832;26;20670;-74
2024/05/06 05:42:02;;;;;;;11.90;8.60;;;12.10;17.20;;;;;;5450441;26;20245;-73
2024/05/06 05:44:28;;;;;;;12.15;8.20;;;12.20;17.70;;;;;;5450205;26;20690;-74
2024/05/06 05:46:53;;;;;;;13.00;8.18;;;12.20;17.10;;;;;;5449594;26;20318;-75
2024/05/06 05:49:18;;;;;;;16.10;8.43;;;12.20;17.10;;;;;;5449805;26;20272;-74
2024/05/06 05:51:44;;;;;;;11.77;8.38;;;12.30;17.10;;;;;;5450223;26;20230;-76
2024/05/06 05:54:09;;;;;;;12.15;8.73;;;12.40;17.00;;;;;;5449933;26;20282;-75
2024/05/06 05:56:35;;;;;;;12.43;7.90;;;12.50;17.10;;;;;;5450051;26;20264;-74
2024/05/06 05:59:01;;;;;;;14.45;8.43;;;12.50;16.90;;;;;;5449707;26;20257;-73
2024/05/06 06:01:27;;;;;;;15.00;8.57;;;12.60;15.80;;;;;;5449384;26;20221;-74
2024/05/06 06:03:53;;;;;;;14.82;9.20;;;12.70;16.80;;;;;;5449534;26;20710;-76
2024/05/06 06:06:18;;;;;;;15.88;8.43;;;12.70;16.80;;;;;;5449542;26;20248;-73
2024/05/06 06:08:44;;;;;;;17.05;9.73;;;12.80;16.50;;;;;;5450134;26;20238;-73
2024/05/06 06:11:09;;;;;;;14.85;9.35;;;12.90;16.70;;;;;;5449585;26;20221;-74
2024/05/06 06:13:35;;;;;;;14.95;9.45;;;13.10;15.60;;;;;;5448970;26;20230;-74
2024/05/06 06:16:00;;;;;;;15.00;8.38;;;13.20;15.00;;;;;;5449300;26;20806;-77
2024/05/06 06:18:26;;;;;;;11.23;7.63;;;13.20;14.80;;;;;;5450715;26;20226;-74
2024/05/06 06:20:52;;;;;;;14.82;8.60;;;13.20;13.80;;;;;;5459553;26;20222;-74
2024/05/06 06:23:18;;;;;;;11.82;8.27;;;13.40;15.20;;;;;;5453665;26;20585;-76
2024/05/06 06:25:43;;;;;;;11.65;8.43;;;13.70;15.40;;;;;;5449723;26;20261;-74
2024/05/06 06:28:09;;;;;;;12.15;8.48;;;13.70;15.00;;;;;;5449492;26;20319;-75
2024/05/06 06:30:34;;;;;;;15.13;8.77;;;13.90;14.70;;;;;;5448881;26;20218;-76
2024/05/06 06:33:00;;;;;;;10.63;7.95;;;14.10;13.10;;;;;;5449728;26;20250;-74
2024/05/06 06:35:25;;;;;;;12.18;7.75;;;14.40;12.50;;;;;;5449407;26;20337;-74
2024/05/06 06:37:53;;;;;;;9.73;7.00;;;14.50;11.30;;;;;;5449003;26;20255;-75
2024/05/06 06:40:19;;;;;;;10.07;7.43;;;14.70;10.60;;;;;;5449172;26;20328;-74
2024/05/06 06:42:44;;;;;;;9.70;7.93;;;14.90;10.50;;;;;;5449383;26;20241;-76
2024/05/06 06:45:09;;;;;;;12.05;7.22;;;15.10;9.40;;;;;;5449315;26;20670;-74
2024/05/06 06:47:35;;;;;;;12.52;6.40;;;15.20;8.30;;;;;;5454269;26;20253;-76
2024/05/06 06:50:01;;;;;;;7.63;6.15;;;15.40;8.30;;;;;;5449445;26;20229;-75
2024/05/06 06:52:26;;;;;;;9.48;6.22;;;15.50;6.50;;;;;;5449670;26;20246;-75
2024/05/06 06:54:51;;;;;;;9.63;5.70;;;15.50;5.00;;;;;;5449499;26;20222;-75
2024/05/06 06:57:17;;;;;;;5.97;4.53;;;15.70;5.00;;;;;;5448946;26;20582;-74
2024/05/06 06:59:42;;;;;;;4.88;3.50;;;15.80;5.00;;;;;;5449156;26;20218;-74
2024/05/06 07:02:08;;;;;;;4.80;3.55;;;15.80;5.00;;;;;;5449224;26;20234;-75
2024/05/06 07:04:33;;;;;;;4.88;4.15;;;15.90;5.00;;;;;;5448972;26;20233;-74
2024/05/06 07:06:59;;;;;;;5.72;4.53;;;16.00;5.00;;;;;;5450193;26;20230;-76
2024/05/06 07:09:24;;;;;;;5.72;5.05;;;16.10;5.00;;;;;;5449098;26;20222;-74
2024/05/06 07:11:50;;;;;;;7.97;4.75;;;16.50;5.00;;;;;;5448857;26;20233;-74
2024/05/06 07:14:15;;;;;;;7.65;4.53;;;16.40;5.00;;;;;;5417145;26;20222;-74
2024/05/06 07:16:41;;;;;;;4.85;3.80;;;16.50;5.00;;;;;;5448736;26;20315;-75
2024/05/06 07:19:07;;;;;;;4.57;3.85;;;16.50;5.00;;;;;;5449434;26;20339;-76
2024/05/06 07:21:33;;;;;;;6.90;4.72;;;16.60;5.00;;;;;;5416624;26;20966;-74
2024/05/06 07:23:59;;;;;;;5.03;4.30;;;16.70;5.00;;;;;;5448750;26;20234;-74
2024/05/06 07:26:24;;;;;;;5.20;3.92;;;16.70;5.00;;;;;;5447634;26;20782;-74
2024/05/06 07:28:53;;;;;;;7.28;5.03;;;16.70;5.00;;;;;;5448669;26;20257;-74
2024/05/06 07:31:19;;;;;;;6.38;5.07;;;16.80;5.00;;;;;;5448530;26;20222;-74
2024/05/06 07:33:45;;;;;;;7.68;5.88;;;16.90;5.00;;;;;;5448881;26;20230;-73
2024/05/06 07:36:11;;;;;;;7.57;5.47;;;16.90;5.00;;;;;;5448413;26;20273;-73
2024/05/06 07:38:36;;;;;;;6.53;5.05;;;16.90;5.00;;;;;;5448315;26;20222;-74
2024/05/06 07:41:03;;;;;;;8.32;5.47;;;17.00;5.00;;;;;;5448352;26;20734;-73
2024/05/06 07:43:29;;;;;;;7.10;6.22;;;17.20;5.00;;;;;;5448348;26;20271;-72
2024/05/06 07:45:54;;;;;;;8.18;5.32;;;17.30;5.00;;;;;;5448009;26;20221;-74
2024/05/06 07:48:20;;;;;;;7.35;5.68;;;17.20;5.00;;;;;;5448457;26;20225;-72
2024/05/06 07:50:46;;;;;;;7.30;5.10;;;17.10;5.00;;;;;;5448269;26;20321;-73
2024/05/06 07:53:11;;;;;;;6.97;5.53;;;17.30;5.00;;;;;;5448140;26;20702;-75
2024/05/06 07:55:37;;;;;;;7.50;4.60;;;17.40;5.00;;;;;;5448214;26;20221;-73
2024/05/06 07:58:06;;;;;;;6.03;4.60;;;17.40;5.00;;;;;;5448353;26;20226;-73
2024/05/06 08:00:37;;;;;;;6.68;4.20;;;17.60;5.00;;;;;;5448357;26;20217;-72
2024/05/06 08:03:04;;;;;;;6.05;4.18;;;17.70;5.00;;;;;;5448124;26;20280;-74
2024/05/06 08:05:29;;;;;;;5.22;3.90;;;17.90;5.00;;;;;;5448133;26;20229;-73
2024/05/06 08:07:56;;;;;;;4.97;3.50;;;18.00;5.00;;;;;;5448108;26;20276;-72
2024/05/06 08:10:22;;;;;;;6.05;3.53;;;18.30;5.00;;;;;;5446805;26;20255;-72
2024/05/06 08:12:47;;;;;;;4.32;3.40;;;18.40;5.00;;;;;;5447245;26;20779;-73
2024/05/06 08:15:13;;;;;;;4.07;3.30;;;18.40;5.00;;;;;;5448077;26;20613;-73
2024/05/06 08:17:38;;;;;;;10.43;3.80;;;18.50;5.00;;;;;;5447624;26;20268;-72
2024/05/06 08:20:04;;;;;;;6.50;3.28;;;18.70;5.00;;;;;;5447946;26;20222;-73
2024/05/06 08:22:29;;;;;;;4.38;3.17;;;18.80;5.00;;;;;;5448250;26;20289;-73
2024/05/06 08:24:55;;;;;;;4.07;2.92;;;18.80;5.00;;;;;;5447605;26;20217;-73
2024/05/06 08:27:21;;;;;;;5.05;3.17;;;18.90;5.00;;;;;;5447910;26;20237;-74
2024/05/06 08:29:46;;;;;;;6.47;2.83;;;19.00;5.00;;;;;;5447613;26;20218;-72
2024/05/06 08:32:13;;;;;;;4.35;2.88;;;19.10;5.00;;;;;;5416161;26;20849;-72
2024/05/06 08:34:38;;;;;;;3.08;2.72;;;19.20;5.00;;;;;;5447654;26;20268;-72
2024/05/06 08:37:04;;;;;;;4.20;3.17;;;19.20;5.00;;;;;;5447469;26;20226;-72
2024/05/06 08:39:29;;;;;;;4.88;3.22;;;19.30;5.00;;;;;;5450517;26;20222;-73
2024/05/06 08:41:56;;;;;;;7.05;2.63;;;19.40;5.00;;;;;;5419564;26;20586;-73
2024/05/06 08:44:29;;;;;;;4.93;3.33;;;19.50;5.00;;;;;;5451336;26;20350;-74
2024/05/06 08:46:55;;;;;;;4.57;3.38;;;19.60;5.00;;;;;;5451099;26;20222;-73
2024/05/06 08:49:23;;;;;;;3.47;2.97;;;19.70;5.00;;;;;;5449762;26;20268;-73
2024/05/06 08:51:49;;;;;;;4.47;3.13;;;19.70;5.00;;;;;;5449883;26;20701;-73
2024/05/06 08:54:16;;;;;;;3.83;3.00;;;19.80;5.00;;;;;;5450877;26;20883;-74
2024/05/06 08:56:42;;;;;;;3.95;3.40;;;19.90;5.00;;;;;;5450652;26;20221;-72
2024/05/06 08:59:09;;;;;;;6.72;2.90;;;20.00;5.00;;;;;;5451026;26;20325;-73
2024/05/06 09:01:35;;;;;;;3.75;3.03;;;20.10;5.00;;;;;;5451173;26;20260;-73
2024/05/06 09:04:01;;;;;;;3.50;2.95;;;20.20;5.00;;;;;;5450824;26;20709;-74
2024/05/06 09:06:27;;;;;;;4.10;2.55;;;20.20;5.00;;;;;;5450277;26;20317;-74
2024/05/06 09:08:52;;;;;;;3.33;2.70;;;20.20;5.00;;;;;;5450738;26;20217;-74
2024/05/06 09:11:18;;;;;;;4.07;2.40;;;20.30;5.00;;;;;;5450983;26;20226;-74
2024/05/06 09:13:46;;;;;;;2.60;2.40;;;20.40;5.00;;;;;;5450565;26;20260;-75
2024/05/06 09:16:11;;;;;;;4.03;2.83;;;20.50;5.00;;;;;;5450659;26;20332;-76
2024/05/06 09:18:37;;;;;;;3.60;2.55;;;20.50;5.00;;;;;;5450896;26;20217;-74
2024/05/06 09:21:08;;;;;;;3.80;2.55;;;20.60;5.00;;;;;;5450160;26;20225;-75
2024/05/06 09:23:38;;;;;;;4.43;2.95;;;20.60;5.00;;;;;;5448586;26;20272;-75
2024/05/06 09:26:04;;;;;;;2.63;2.42;;;20.50;5.00;;;;;;5096487;26;10000440;-75
2024/05/06 09:28:32;;;;;;;3.53;2.92;;;20.50;5.00;;;;;;5482998;26;20243;-75
2024/05/06 09:30:57;;;;;;;4.13;3.15;;;20.60;5.00;;;;;;5482929;26;20259;-75
2024/05/06 09:33:25;;;;;;;3.17;2.78;;;20.60;5.00;;;;;;5482607;26;20241;-74
2024/05/06 09:35:51;;;;;;;2.85;2.35;;;20.80;5.00;;;;;;5481443;26;20228;-75
2024/05/06 09:38:17;;;;;;;2.88;2.65;;;20.80;5.00;;;;;;5481995;26;20220;-77
2024/05/06 09:41:01;;;;;;;3.80;2.95;;;20.90;5.00;;;;;;5482298;26;20208;-73
2024/05/06 09:43:35;;;;;;;3.70;2.40;;;21.00;5.00;;;;;;5482127;26;20350;-75
2024/05/06 09:46:03;;;;;;;3.70;2.80;;;21.00;5.00;;;;;;5484626;26;20712;-75
2024/05/06 09:48:34;;;;;;;3.08;2.53;;;21.20;5.00;;;;;;5486078;26;20221;-74
2024/05/06 09:51:03;;;;;;;3.95;2.13;;;21.20;5.00;;;;;;5486271;26;20267;-74
2024/05/06 09:53:29;;;;;;;2.30;2.10;;;21.40;5.00;;;;;;5484243;26;20229;-74
2024/05/06 09:55:57;;;;;;;2.83;2.30;;;21.60;5.00;;;;;;5484794;26;20281;-75
2024/05/06 09:58:24;;;;;;;2.40;2.20;;;21.70;5.00;;;;;;5486353;26;20236;-75
2024/05/06 10:00:50;;;;;;;3.20;2.50;;;21.90;5.00;;;;;;5486478;26;20220;-74
2024/05/06 10:03:16;;;;;;;3.08;2.30;;;21.80;5.00;;;;;;5486341;26;20279;-75
2024/05/06 10:05:42;;;;;;;5.93;2.85;;;21.90;5.00;;;;;;5485834;26;20224;-75
2024/05/06 10:08:11;;;;;;;3.13;2.65;;;22.00;5.00;;;;;;5443497;26;20272;-74
2024/05/06 10:10:37;;;;;;;2.67;2.45;;;22.00;5.00;;;;;;5445125;26;20233;-74
2024/05/06 10:13:08;;;;;;;5.05;2.33;;;22.20;5.00;;;;;;5422869;26;20265;-75
2024/05/06 10:15:47;;;;;;;1.73;1.63;;;22.20;5.00;;;;;;5438634;26;20237;-74
2024/05/06 10:18:23;;;;;;;4.72;2.63;;;22.30;5.00;;;;;;5450126;26;20273;-73
2024/05/06 10:20:59;;;;;;;2.30;2.10;;;22.50;5.00;;;;;;5450314;26;20303;-73
2024/05/06 10:23:30;;;;;;;3.70;2.35;;;22.50;5.00;;;;;;5450125;26;20279;-74
2024/05/06 10:26:00;;;;;;;3.00;2.20;;;22.50;5.00;;;;;;5449541;26;20269;-74
2024/05/06 10:28:44;;;;;;;3.15;2.55;;;22.50;5.00;;;;;;5450256;26;20333;-74
2024/05/06 10:31:12;;;;;;;2.22;1.85;;;22.60;5.00;;;;;;5448269;26;20233;-74
2024/05/06 10:33:42;;;;;;;3.05;1.90;;;22.60;5.00;;;;;;5449563;26;20342;-73
2024/05/06 10:36:08;;;;;;;2.50;2.30;;;22.70;5.00;;;;;;5449463;26;20221;-73
2024/05/06 10:38:34;;;;;;;2.50;2.30;;;22.80;5.00;;;;;;5450771;26;20226;-73
2024/05/06 10:41:05;;;;;;;3.13;2.50;;;22.90;5.00;;;;;;5449488;26;20279;-73
2024/05/06 10:43:31;;;;;;;2.83;2.63;;;23.00;5.00;;;;;;5449586;26;20279;-73
2024/05/06 10:45:57;;;;;;;3.15;1.80;;;23.10;5.00;;;;;;5448538;26;20404;-74
2024/05/06 10:48:26;;;;;;;4.65;2.30;;;23.20;5.00;;;;;;5449460;26;20226;-74
2024/05/06 10:50:52;;;;;;;2.33;1.70;;;23.30;5.00;;;;;;5449228;26;20666;-72
2024/05/06 10:53:22;;;;;;;2.65;1.80;;;23.30;5.00;;;;;;5449444;26;20316;-74
2024/05/06 10:55:51;;;;;;;5.55;1.60;;;23.40;5.00;;;;;;5449251;26;20702;-74
2024/05/06 10:58:17;;;;;;;2.00;1.85;;;23.40;5.00;;;;;;5417943;26;20268;-74
2024/05/06 11:00:43;;;;;;;4.30;2.13;;;23.40;5.00;;;;;;5447944;26;20222;-73
2024/05/06 11:03:10;;;;;;;3.42;2.10;;;23.40;5.00;;;;;;5063000;26;10000141;-73
2024/05/06 11:05:35;;;;;;;5.05;3.22;;;23.40;5.00;;;;;;5408382;26;20223;-73
2024/05/06 11:08:02;;;;;;;4.18;2.47;;;23.30;5.00;;;;;;5415815;26;20264;-73
2024/05/06 11:10:36;;;;;;;2.30;2.10;;;23.20;5.00;;;;;;5381225;26;20238;-74
2024/05/06 11:13:02;;;;;;;2.22;1.98;;;23.20;5.00;;;;;;5413454;26;20234;-73
2024/05/06 11:15:28;;;;;;;4.38;2.15;;;23.20;5.00;;;;;;5412004;26;20258;-74
2024/05/06 11:17:55;;;;;;;3.08;1.65;;;23.30;5.00;;;;;;5412841;26;20227;-74
2024/05/06 11:20:35;;;;;;;2.47;2.00;;;23.10;5.00;;;;;;5413267;26;20235;-76
2024/05/06 11:23:01;;;;;;;2.58;1.90;;;23.00;5.00;;;;;;5413068;26;20782;-76
2024/05/06 11:25:27;;;;;;;2.03;1.83;;;23.00;5.00;;;;;;5412794;26;20231;-74
2024/05/06 11:27:54;;;;;;;4.25;1.70;;;23.00;5.00;;;;;;5413218;26;20733;-75
2024/05/06 11:30:20;;;;;;;1.67;1.58;;;23.00;5.00;;;;;;5413133;26;20223;-74
2024/05/06 11:32:45;;;;;;;2.22;1.85;;;23.00;5.00;;;;;;5418544;26;20346;-75
2024/05/06 11:35:11;;;;;;;1.60;1.50;;;22.90;5.00;;;;;;5448600;26;20218;-74
2024/05/06 11:37:36;;;;;;;2.17;1.98;;;23.00;5.00;;;;;;5448850;26;20222;-74
2024/05/06 11:40:02;;;;;;;2.10;1.83;;;22.90;5.00;;;;;;5448760;26;20319;-74
2024/05/06 11:42:28;;;;;;;1.40;1.30;;;22.80;5.00;;;;;;5447473;26;20230;-75
2024/05/06 11:44:53;;;;;;;1.50;1.40;;;22.80;5.00;;;;;;5448863;26;20595;-76
2024/05/06 11:47:19;;;;;;;2.20;1.40;;;22.70;5.00;;;;;;5445449;26;20761;-73
2024/05/06 11:49:44;;;;;;;3.03;2.00;;;22.60;5.00;;;;;;5444509;26;20259;-74
2024/05/06 11:52:09;;;;;;;1.90;1.80;;;22.60;5.00;;;;;;5444052;26;20230;-74
2024/05/06 11:54:35;;;;;;;2.22;1.90;;;22.50;5.00;;;;;;5444141;26;20218;-74
2024/05/06 11:57:00;;;;;;;1.80;1.70;;;22.40;5.00;;;;;;5443966;26;20214;-74
2024/05/06 11:59:26;;;;;;;1.10;1.10;;;22.30;5.00;;;;;;5443301;26;20748;-75
2024/05/06 12:01:51;;;;;;;1.70;1.60;;;22.30;5.00;;;;;;5443708;26;20225;-74
2024/05/06 12:04:17;;;;;;;2.63;1.52;;;22.20;5.00;;;;;;5419725;26;20302;-75
2024/05/06 12:06:43;;;;;;;1.73;1.52;;;22.20;5.00;;;;;;5407885;26;20714;-74
2024/05/06 12:09:09;;;;;;;2.65;1.85;;;22.20;5.00;;;;;;5406835;26;20278;-78
2024/05/06 12:11:34;;;;;;;3.00;1.40;;;22.20;5.00;;;;;;5407464;26;20218;-76
2024/05/06 12:14:00;;;;;;;2.42;1.58;;;22.20;5.00;;;;;;5408346;26;20633;-77
2024/05/06 12:16:25;;;;;;;1.65;1.25;;;22.20;5.00;;;;;;5407682;26;20257;-75
2024/05/06 12:18:51;;;;;;;1.63;1.52;;;22.20;5.00;;;;;;5408351;26;20874;-76
2024/05/06 12:21:16;;;;;;;2.10;1.85;;;22.10;5.00;;;;;;5408150;26;20287;-74
2024/05/06 12:23:42;;;;;;;5.43;1.50;;;22.10;5.00;;;;;;5407242;26;20277;-75
2024/05/06 12:26:08;;;;;;;2.65;1.63;;;22.10;5.00;;;;;;5407969;26;20269;-75
2024/05/06 12:28:33;;;;;;;1.70;1.60;;;22.00;5.00;;;;;;5408141;26;20331;-74
2024/05/06 12:30:59;;;;;;;1.90;1.70;;;22.00;5.00;;;;;;5407235;26;20849;-74
2024/05/06 12:33:24;;;;;;;1.60;1.50;;;22.00;5.00;;;;;;5407959;26;20226;-76
2024/05/06 12:35:50;;;;;;;2.20;2.00;;;22.10;5.00;;;;;;5407899;26;20222;-75
2024/05/06 12:38:17;;;;;;;1.88;1.70;;;22.10;5.00;;;;;;5407142;26;20284;-73
2024/05/06 12:40:44;;;;;;;1.88;1.77;;;22.00;5.00;;;;;;5411801;26;20262;-73
2024/05/06 12:43:09;;;;;;;3.55;1.48;;;22.10;5.00;;;;;;5409768;26;20264;-73
2024/05/06 12:45:35;;;;;;;1.50;1.40;;;22.10;5.00;;;;;;5410037;26;20226;-74
2024/05/06 12:48:01;;;;;;;1.48;1.38;;;22.10;5.00;;;;;;5411324;26;20231;-73
2024/05/06 12:50:26;;;;;;;2.03;1.60;;;22.10;5.00;;;;;;5411947;26;20265;-74